TimeEDT,TemperatureF,Dew PointF,Humidity,Sea Level PressureIn,VisibilityMPH,Wind Direction,Wind SpeedMPH,Gust SpeedMPH,PrecipitationIn,Events,Conditions,WindDirDegrees,DateUTC
12:53 AM,81.0,73.0,77,30.00,10.0,SE,18.4,-,N/A,,Scattered Clouds,130,2013-04-19 04:53:00
1:53 AM,81.0,72.0,74,29.99,10.0,SE,17.3,25.3,N/A,,Scattered Clouds,140,2013-04-19 05:53:00
2:53 AM,81.0,72.0,74,29.98,10.0,SE,16.1,-,N/A,,Scattered Clouds,130,2013-04-19 06:53:00
3:53 AM,81.0,72.0,74,29.97,10.0,SE,17.3,25.3,N/A,,Partly Cloudy,140,2013-04-19 07:53:00
4:53 AM,80.1,71.1,74,29.97,10.0,SE,19.6,25.3,N/A,,Clear,140,2013-04-19 08:53:00
5:53 AM,80.1,71.1,74,29.97,10.0,SE,18.4,-,N/A,,Partly Cloudy,140,2013-04-19 09:53:00
6:53 AM,80.1,72.0,76,29.99,10.0,SE,15.0,-,N/A,,Partly Cloudy,140,2013-04-19 10:53:00
7:53 AM,80.1,72.0,76,30.01,10.0,SE,16.1,-,N/A,,Clear,140,2013-04-19 11:53:00
8:53 AM,81.0,73.0,77,30.01,10.0,SE,15.0,-,N/A,,Partly Cloudy,140,2013-04-19 12:53:00
9:53 AM,82.9,72.0,69,30.02,10.0,SE,13.8,-,N/A,,Clear,140,2013-04-19 13:53:00
10:53 AM,82.9,73.0,72,30.03,10.0,SE,13.8,-,N/A,,Clear,140,2013-04-19 14:53:00
11:53 AM,84.0,72.0,67,30.03,10.0,SE,13.8,-,N/A,,Clear,140,2013-04-19 15:53:00
12:53 PM,84.9,73.9,69,30.02,10.0,SE,12.7,-,N/A,,Clear,130,2013-04-19 16:53:00
1:53 PM,86.0,73.0,65,30.01,10.0,ESE,16.1,-,N/A,,Clear,120,2013-04-19 17:53:00
2:53 PM,87.1,73.9,65,30.00,10.0,ESE,12.7,-,N/A,,Clear,120,2013-04-19 18:53:00
3:53 PM,84.9,73.9,69,29.98,10.0,ESE,17.3,-,N/A,,Clear,120,2013-04-19 19:53:00
4:53 PM,84.9,73.0,67,29.97,10.0,SE,13.8,-,N/A,,Partly Cloudy,130,2013-04-19 20:53:00
5:53 PM,84.0,73.0,69,29.96,10.0,ESE,11.5,-,N/A,,Clear,120,2013-04-19 21:53:00
6:53 PM,82.9,73.0,72,29.96,10.0,ESE,10.4,-,N/A,,Clear,120,2013-04-19 22:53:00
7:53 PM,81.0,72.0,74,29.97,10.0,ESE,11.5,-,N/A,,Clear,110,2013-04-19 23:53:00
8:53 PM,81.0,73.0,77,30.00,10.0,ESE,12.7,-,N/A,,Clear,110,2013-04-20 00:53:00
9:53 PM,81.0,73.9,79,30.04,10.0,SE,12.7,18.4,N/A,,Scattered Clouds,130,2013-04-20 01:53:00
10:53 PM,81.0,73.9,79,30.04,10.0,SE,11.5,-,N/A,,Clear,140,2013-04-20 02:53:00
11:53 PM,81.0,73.9,79,30.04,10.0,SSE,11.5,-,N/A,,Clear,150,2013-04-20 03:53:00